createdAt,value
2018-05-10T00:00:18.783Z,58.27
2018-05-10T00:01:18.759Z,58.08
2018-05-10T00:02:18.747Z,57.50
2018-05-10T00:03:18.733Z,57.21
2018-05-10T00:04:18.725Z,58.27
2018-05-10T00:05:18.714Z,58.37
2018-05-10T00:06:18.691Z,58.37
2018-05-10T00:07:18.677Z,57.98
2018-05-10T00:08:18.665Z,58.08
2018-05-10T00:09:18.652Z,58.08
2018-05-10T00:10:18.644Z,58.65
2018-05-10T00:11:18.621Z,58.37
2018-05-10T00:12:18.609Z,58.24
2018-05-10T00:13:18.596Z,58.34
2018-05-10T00:14:18.589Z,59.40
2018-05-10T00:15:18.574Z,58.63
2018-05-10T00:16:18.553Z,58.63
2018-05-10T00:17:18.541Z,58.63
2018-05-10T00:18:18.529Z,59.11
2018-05-10T00:19:18.513Z,59.20
2018-05-10T00:20:18.500Z,58.63
2018-05-10T00:21:18.485Z,58.53
2018-05-10T00:22:18.469Z,58.53
2018-05-10T00:23:18.463Z,59.40
2018-05-10T00:24:18.456Z,59.11
2018-05-10T00:25:18.432Z,58.72
2018-05-10T00:26:18.438Z,58.24
2018-05-10T00:27:18.405Z,58.82
2018-05-10T00:28:18.389Z,58.82
2018-05-10T00:29:19.128Z,58.82
2018-05-10T00:30:18.360Z,58.92
2018-05-10T00:31:18.346Z,58.53
2018-05-10T00:32:18.336Z,58.72
2018-05-10T00:33:18.333Z,58.82
2018-05-10T00:34:18.312Z,59.20
2018-05-10T00:35:18.316Z,59.88
2018-05-10T00:36:18.277Z,58.72
2018-05-10T00:37:18.265Z,59.30
2018-05-10T00:38:18.251Z,59.78
2018-05-10T00:39:18.246Z,59.97
2018-05-10T00:40:18.224Z,59.75
2018-05-10T00:41:18.209Z,59.88
2018-05-10T00:42:18.196Z,60.42
2018-05-10T00:43:18.184Z,60.04
2018-05-10T00:44:18.191Z,60.52
2018-05-10T00:45:18.151Z,60.81
2018-05-10T00:46:18.142Z,60.24
2018-05-10T00:47:18.127Z,60.24
2018-05-10T00:48:18.115Z,60.42
2018-05-10T00:49:18.119Z,60.24
2018-05-10T00:50:18.082Z,60.24
2018-05-10T00:51:18.075Z,60.04
2018-05-10T00:52:18.075Z,60.14
2018-05-10T00:53:18.061Z,59.94
2018-05-10T00:54:18.035Z,59.94
2018-05-10T00:55:18.016Z,60.42
2018-05-10T00:56:18.002Z,60.33
2018-05-10T00:57:17.986Z,60.24
2018-05-10T00:58:17.975Z,59.85
2018-05-10T00:59:17.959Z,60.52
2018-05-10T01:00:17.945Z,60.52
2018-05-10T01:01:17.929Z,60.52
2018-05-10T01:02:17.915Z,60.33
2018-05-10T01:03:17.902Z,60.33
2018-05-10T01:04:17.887Z,60.42
2018-05-10T01:05:17.883Z,60.33
2018-05-10T01:06:17.859Z,60.42
2018-05-10T01:07:17.844Z,60.24
2018-05-10T01:08:17.831Z,60.62
2018-05-10T01:09:17.831Z,61.10
2018-05-10T01:10:17.803Z,61.00
2018-05-10T01:11:17.792Z,60.81
2018-05-10T01:12:17.777Z,61.74
2018-05-10T01:13:17.762Z,61.77
2018-05-10T01:14:17.747Z,61.39
2018-05-10T01:15:17.733Z,61.36
2018-05-10T01:16:17.724Z,61.36
2018-05-10T01:17:17.707Z,62.41
2018-05-10T01:18:17.696Z,62.32
2018-05-10T01:19:17.677Z,62.13
2018-05-10T01:20:17.664Z,61.94
2018-05-10T01:21:17.664Z,61.94
2018-05-10T01:22:17.635Z,62.32
2018-05-10T01:23:17.622Z,62.51
2018-05-10T01:24:17.608Z,62.41
2018-05-10T01:25:17.596Z,62.03
2018-05-10T01:26:17.593Z,62.51
2018-05-10T01:27:17.564Z,62.41
2018-05-10T01:28:17.561Z,62.99
2018-05-10T01:29:17.535Z,62.51
2018-05-10T01:30:17.528Z,62.23
2018-05-10T01:31:17.512Z,62.13
2018-05-10T01:32:17.495Z,62.90
2018-05-10T01:33:17.476Z,63.64
2018-05-10T01:34:17.475Z,63.83
2018-05-10T01:35:17.464Z,63.54
2018-05-10T01:36:17.445Z,64.02
2018-05-10T01:37:17.420Z,63.83
2018-05-10T01:38:17.422Z,64.40
2018-05-10T01:39:17.395Z,64.22
2018-05-10T01:40:17.380Z,64.98
2018-05-10T01:41:17.369Z,64.79
2018-05-10T01:42:17.352Z,64.12
2018-05-10T01:43:17.334Z,64.89
2018-05-10T01:44:17.325Z,64.69
2018-05-10T01:45:17.305Z,64.69
2018-05-10T01:46:17.296Z,64.40
2018-05-10T01:47:17.279Z,64.98
2018-05-10T01:48:17.262Z,64.69
2018-05-10T01:49:17.250Z,65.27
2018-05-10T01:50:17.248Z,65.17
2018-05-10T01:51:17.224Z,64.98
2018-05-10T01:52:17.220Z,65.56
2018-05-10T01:53:17.193Z,65.17
2018-05-10T01:54:17.188Z,65.94
2018-05-10T01:55:17.166Z,65.56
2018-05-10T01:56:17.148Z,65.46
2018-05-10T01:57:17.131Z,65.46
2018-05-10T01:58:17.118Z,65.43
2018-05-10T01:59:17.105Z,66.00
2018-05-10T02:00:17.093Z,65.33
2018-05-10T02:01:17.135Z,66.20
2018-05-10T02:02:17.060Z,66.10
2018-05-10T02:03:17.100Z,66.20
2018-05-10T02:04:17.037Z,66.49
2018-05-10T02:05:17.022Z,66.68
2018-05-10T02:06:17.002Z,66.58
2018-05-10T02:07:16.987Z,66.87
2018-05-10T02:08:16.972Z,66.87
2018-05-10T02:09:16.959Z,66.97
2018-05-10T02:10:16.952Z,66.97
2018-05-10T02:11:16.928Z,67.54
2018-05-10T02:12:16.916Z,67.07
2018-05-10T02:13:16.902Z,67.54
2018-05-10T02:14:16.886Z,66.93
2018-05-10T02:15:16.924Z,68.08
2018-05-10T02:16:16.916Z,67.13
2018-05-10T02:17:16.905Z,67.61
2018-05-10T02:18:16.886Z,67.13
2018-05-10T02:19:16.863Z,67.90
2018-05-10T02:20:16.802Z,68.08
2018-05-10T02:21:16.790Z,68.18
2018-05-10T02:22:16.768Z,68.47
2018-05-10T02:23:16.773Z,68.85
2018-05-10T02:24:16.739Z,68.47
2018-05-10T02:25:16.740Z,68.57
2018-05-10T02:26:16.710Z,68.66
2018-05-10T02:27:16.696Z,69.05
2018-05-10T02:28:16.697Z,68.76
2018-05-10T02:29:16.688Z,68.66
2018-05-10T02:30:16.658Z,69.05
2018-05-10T02:31:16.651Z,68.95
2018-05-10T02:32:17.129Z,69.62
2018-05-10T02:33:16.610Z,69.43
2018-05-10T02:34:16.608Z,69.72
2018-05-10T02:35:16.583Z,69.34
2018-05-10T02:36:16.569Z,69.91
2018-05-10T02:37:16.548Z,69.91
2018-05-10T02:38:16.537Z,70.39
2018-05-10T02:39:16.526Z,70.58
2018-05-10T02:40:16.508Z,70.68
2018-05-10T02:41:16.495Z,71.03
2018-05-10T02:42:16.481Z,71.61
2018-05-10T02:43:16.464Z,71.98
2018-05-10T02:44:16.454Z,72.28
2018-05-10T02:45:16.457Z,72.75
2018-05-10T02:46:16.416Z,73.04
2018-05-10T02:47:16.402Z,73.62
2018-05-10T02:48:16.418Z,73.72
2018-05-10T02:49:16.372Z,73.91
2018-05-10T02:50:16.354Z,74.29
2018-05-10T02:51:16.342Z,74.54
2018-05-10T02:52:16.340Z,74.54
2018-05-10T02:53:16.331Z,74.64
2018-05-10T02:54:16.299Z,74.73
2018-05-10T02:55:16.283Z,74.64
2018-05-10T02:56:16.270Z,75.15
2018-05-10T02:57:16.268Z,74.83
2018-05-10T02:58:16.258Z,75.21
2018-05-10T02:59:16.235Z,75.31
2018-05-10T03:00:16.210Z,75.40
2018-05-10T03:01:16.195Z,74.73
2018-05-10T03:02:16.176Z,75.12
2018-05-10T03:03:16.193Z,75.79
2018-05-10T03:04:18.030Z,75.50
2018-05-10T03:05:16.142Z,75.40
2018-05-10T03:06:16.144Z,75.50
2018-05-10T03:07:16.116Z,75.70
2018-05-10T03:08:16.092Z,75.21
2018-05-10T03:09:16.168Z,75.89
2018-05-10T03:10:16.058Z,75.40
2018-05-10T03:11:16.059Z,75.98
2018-05-10T03:12:16.057Z,75.79
2018-05-10T03:13:16.065Z,75.89
2018-05-10T03:14:16.036Z,75.89
2018-05-10T03:15:15.993Z,76.07
2018-05-10T03:16:15.975Z,76.46
2018-05-10T03:17:15.970Z,76.46
2018-05-10T03:18:15.959Z,76.56
2018-05-10T03:19:15.919Z,76.37
2018-05-10T03:20:15.920Z,76.46
2018-05-10T03:21:15.901Z,76.17
2018-05-10T03:22:15.911Z,76.27
2018-05-10T03:23:15.861Z,76.56
2018-05-10T03:24:15.868Z,76.27
2018-05-10T03:25:15.869Z,76.94
2018-05-10T03:26:15.849Z,77.23
2018-05-10T03:27:15.826Z,77.23
2018-05-10T03:28:15.782Z,77.42
2018-05-10T03:29:15.764Z,77.42
2018-05-10T03:30:15.782Z,78.19
2018-05-10T03:31:15.734Z,78.19
2018-05-10T03:32:15.721Z,77.48
2018-05-10T03:33:15.767Z,78.05
2018-05-10T03:34:15.712Z,78.44
2018-05-10T03:35:15.676Z,78.53
2018-05-10T03:36:15.670Z,78.25
2018-05-10T03:37:15.642Z,78.72
2018-05-10T03:38:15.625Z,79.11
2018-05-10T03:39:15.614Z,79.30
2018-05-10T03:40:15.599Z,79.11
2018-05-10T03:41:15.584Z,79.30
2018-05-10T03:42:15.571Z,79.30
2018-05-10T03:43:15.554Z,79.11
2018-05-10T03:44:15.548Z,79.49
2018-05-10T03:45:15.521Z,79.39
2018-05-10T03:46:15.503Z,79.39
2018-05-10T03:47:15.492Z,80.07
2018-05-10T03:48:15.481Z,79.78
2018-05-10T03:49:15.457Z,80.07
2018-05-10T03:50:15.442Z,80.16
2018-05-10T03:51:15.425Z,80.41
2018-05-10T03:52:15.462Z,81.08
2018-05-10T03:53:15.416Z,81.18
2018-05-10T03:54:15.393Z,81.75
2018-05-10T03:55:15.363Z,82.32
2018-05-10T03:56:15.394Z,82.62
2018-05-10T03:57:15.350Z,83.09
2018-05-10T03:58:15.316Z,82.81
2018-05-10T03:59:15.299Z,83.48
2018-05-10T04:00:15.321Z,82.81
2018-05-10T04:01:15.282Z,83.00
2018-05-10T04:02:15.252Z,83.48
2018-05-10T04:03:15.238Z,83.29
2018-05-10T04:04:15.219Z,83.86
2018-05-10T04:05:15.205Z,83.67
2018-05-10T04:06:15.203Z,84.25
2018-05-10T04:07:15.172Z,84.53
2018-05-10T04:08:15.159Z,83.48
2018-05-10T04:09:15.148Z,83.58
2018-05-10T04:10:15.136Z,83.58
2018-05-10T04:11:15.115Z,83.86
2018-05-10T04:12:15.113Z,83.76
2018-05-10T04:13:15.075Z,84.25
2018-05-10T04:14:15.064Z,84.05
2018-05-10T04:15:15.046Z,84.05
2018-05-10T04:16:15.031Z,84.34
2018-05-10T04:17:15.015Z,84.34
2018-05-10T04:18:14.996Z,84.15
2018-05-10T04:19:14.988Z,84.53
2018-05-10T04:20:14.970Z,84.25
2018-05-10T04:21:14.959Z,84.05
2018-05-10T04:22:14.936Z,84.15
2018-05-10T04:23:14.917Z,83.67
2018-05-10T04:24:14.909Z,84.15
2018-05-10T04:25:14.897Z,83.86
2018-05-10T04:26:14.892Z,83.58
2018-05-10T04:27:14.855Z,84.15
2018-05-10T04:28:14.852Z,84.25
2018-05-10T04:29:14.827Z,84.25
2018-05-10T04:30:14.810Z,83.58
2018-05-10T04:31:14.861Z,83.58
2018-05-10T04:32:14.777Z,83.48
2018-05-10T04:33:14.767Z,83.67
2018-05-10T04:34:14.753Z,83.19
2018-05-10T04:35:15.169Z,82.71
2018-05-10T04:36:14.713Z,82.52
2018-05-10T04:37:14.698Z,82.94
2018-05-10T04:38:14.682Z,82.62
2018-05-10T04:39:14.665Z,82.94
2018-05-10T04:40:14.650Z,82.46
2018-05-10T04:41:14.636Z,82.08
2018-05-10T04:42:14.635Z,82.27
2018-05-10T04:43:14.608Z,81.41
2018-05-10T04:44:14.592Z,81.70
2018-05-10T04:45:14.574Z,81.79
2018-05-10T04:46:14.557Z,81.31
2018-05-10T04:47:14.544Z,81.12
2018-05-10T04:48:14.529Z,80.93
2018-05-10T04:49:14.510Z,81.02
2018-05-10T04:50:14.499Z,81.18
2018-05-10T04:51:14.497Z,81.56
2018-05-10T04:52:14.481Z,82.14
2018-05-10T04:53:14.454Z,82.23
2018-05-10T04:54:14.450Z,83.09
2018-05-10T04:55:14.416Z,82.86
2018-05-10T04:56:14.401Z,83.29
2018-05-10T04:57:14.386Z,83.15
2018-05-10T04:58:14.366Z,83.15
2018-05-10T04:59:14.356Z,83.53
2018-05-10T05:00:14.357Z,82.86
2018-05-10T05:01:14.341Z,83.25
2018-05-10T05:02:14.309Z,83.44
2018-05-10T05:03:14.287Z,83.15
2018-05-10T05:04:14.274Z,83.09
2018-05-10T05:05:14.257Z,83.19
2018-05-10T05:06:15.138Z,83.48
2018-05-10T05:07:14.227Z,82.81
2018-05-10T05:08:14.211Z,82.90
2018-05-10T05:09:14.196Z,82.04
2018-05-10T05:10:14.181Z,82.14
2018-05-10T05:11:14.164Z,82.04
2018-05-10T05:12:14.147Z,82.32
2018-05-10T05:13:14.134Z,82.14
2018-05-10T05:14:14.112Z,82.04
2018-05-10T05:15:14.103Z,82.52
2018-05-10T05:16:14.082Z,81.95
2018-05-10T05:17:14.069Z,81.27
2018-05-10T05:18:14.061Z,81.18
2018-05-10T05:19:14.035Z,81.37
2018-05-10T05:20:14.021Z,81.56
2018-05-10T05:21:14.008Z,81.46
2018-05-10T05:22:14.014Z,81.46
2018-05-10T05:23:13.970Z,81.46
2018-05-10T05:24:13.965Z,81.85
2018-05-10T05:25:13.937Z,81.85
2018-05-10T05:26:13.931Z,81.56
2018-05-10T05:27:13.913Z,81.75
2018-05-10T05:28:13.893Z,81.56
2018-05-10T05:29:13.876Z,82.14
2018-05-10T05:30:13.869Z,81.46
2018-05-10T05:31:13.850Z,81.37
2018-05-10T05:32:13.827Z,82.14
2018-05-10T05:33:13.816Z,82.04
2018-05-10T05:34:13.801Z,82.29
2018-05-10T05:35:13.785Z,82.67
2018-05-10T05:36:13.768Z,83.44
2018-05-10T05:37:13.751Z,83.15
2018-05-10T05:38:13.744Z,83.92
2018-05-10T05:39:13.720Z,83.63
2018-05-10T05:40:13.708Z,83.53
2018-05-10T05:41:13.787Z,83.53
2018-05-10T05:42:13.712Z,82.96
2018-05-10T05:43:13.726Z,83.05
2018-05-10T05:44:13.646Z,83.15
2018-05-10T05:45:13.624Z,82.86
2018-05-10T05:46:13.611Z,82.67
2018-05-10T05:47:13.594Z,82.67
2018-05-10T05:48:13.601Z,82.29
2018-05-10T05:49:13.566Z,82.04
2018-05-10T05:50:13.545Z,82.04
2018-05-10T05:51:13.558Z,81.56
2018-05-10T05:52:13.553Z,81.75
2018-05-10T05:53:13.522Z,81.95
2018-05-10T05:54:13.478Z,81.18
2018-05-10T05:55:13.520Z,80.79
2018-05-10T05:56:13.497Z,80.70
2018-05-10T05:57:13.435Z,80.99
2018-05-10T05:58:13.435Z,80.70
2018-05-10T05:59:13.408Z,80.79
2018-05-10T06:00:13.431Z,80.41
2018-05-10T06:01:13.380Z,80.32
2018-05-10T06:02:13.376Z,80.70
2018-05-10T06:03:13.369Z,80.89
2018-05-10T06:04:13.352Z,80.79
2018-05-10T06:05:13.305Z,80.41
2018-05-10T06:06:14.002Z,80.32
2018-05-10T06:07:13.277Z,80.32
2018-05-10T06:08:13.260Z,80.51
2018-05-10T06:09:13.245Z,80.16
2018-05-10T06:10:13.241Z,80.26
2018-05-10T06:11:13.220Z,80.35
2018-05-10T06:12:13.198Z,80.74
2018-05-10T06:13:13.181Z,80.93
2018-05-10T06:14:13.193Z,81.79
2018-05-10T06:15:13.159Z,81.51
2018-05-10T06:16:13.143Z,83.09
2018-05-10T06:17:13.157Z,83.19
2018-05-10T06:18:13.160Z,82.81
2018-05-10T06:19:13.084Z,83.86
2018-05-10T06:20:13.079Z,83.67
2018-05-10T06:21:13.054Z,84.25
2018-05-10T06:22:13.037Z,84.53
2018-05-10T06:23:13.026Z,84.34
2018-05-10T06:24:13.014Z,83.95
2018-05-10T06:25:13.037Z,85.21
2018-05-10T06:26:13.062Z,85.01
2018-05-10T06:27:12.975Z,85.01
2018-05-10T06:28:12.951Z,85.11
2018-05-10T06:29:12.956Z,85.11
2018-05-10T06:30:12.913Z,85.49
2018-05-10T06:31:12.897Z,85.49
2018-05-10T06:32:12.882Z,85.45
2018-05-10T06:33:12.870Z,85.93
2018-05-10T06:34:12.882Z,85.45
2018-05-10T06:35:12.905Z,86.02
2018-05-10T06:36:12.820Z,86.98
2018-05-10T06:37:13.657Z,86.12
2018-05-10T06:38:12.830Z,87.27
2018-05-10T06:39:12.797Z,86.88
2018-05-10T06:40:12.825Z,86.69
2018-05-10T06:41:12.740Z,87.08
2018-05-10T06:42:12.748Z,86.79
2018-05-10T06:43:12.713Z,86.41
2018-05-10T06:44:12.743Z,87.17
2018-05-10T06:45:12.766Z,87.37
2018-05-10T06:46:12.696Z,86.79
2018-05-10T06:47:12.700Z,86.79
2018-05-10T06:48:12.633Z,87.27
2018-05-10T06:49:12.630Z,86.41
2018-05-10T06:50:12.600Z,85.49
2018-05-10T06:51:12.596Z,85.11
2018-05-10T06:52:12.568Z,84.63
2018-05-10T06:53:12.548Z,84.05
2018-05-10T06:54:16.331Z,84.15
2018-05-10T06:55:12.523Z,85.01
2018-05-10T06:56:12.504Z,85.11
2018-05-10T06:57:12.485Z,84.53
2018-05-10T06:58:12.469Z,84.53
2018-05-10T06:59:12.455Z,83.95
2018-05-10T07:00:12.448Z,83.86
2018-05-10T07:01:12.440Z,84.15
2018-05-10T07:02:12.406Z,83.86
2018-05-10T07:03:13.181Z,82.85
2018-05-10T07:04:13.382Z,82.90
2018-05-10T07:05:12.359Z,81.85
2018-05-10T07:06:12.350Z,83.09
2018-05-10T07:07:12.416Z,82.23
2018-05-10T07:08:12.363Z,83.09
2018-05-10T07:09:12.294Z,82.62
2018-05-10T07:10:12.286Z,83.19
2018-05-10T07:11:12.316Z,82.04
2018-05-10T07:12:12.481Z,80.79
2018-05-10T07:13:12.238Z,80.70
2018-05-10T07:14:12.243Z,81.66
2018-05-10T07:15:12.209Z,80.89
2018-05-10T07:16:12.183Z,80.12
2018-05-10T07:17:12.231Z,79.45
2018-05-10T07:18:12.166Z,80.51
2018-05-10T07:19:12.136Z,80.22
2018-05-10T07:20:12.123Z,80.12
2018-05-10T07:21:12.115Z,80.41
2018-05-10T07:22:12.112Z,79.64
2018-05-10T07:23:12.131Z,80.32
2018-05-10T07:24:12.095Z,80.35
2018-05-10T07:25:12.129Z,80.35
2018-05-10T07:26:13.676Z,80.55
2018-05-10T07:27:12.030Z,80.35
2018-05-10T07:28:12.039Z,80.35
2018-05-10T07:29:12.027Z,78.25
2018-05-10T07:30:11.961Z,77.67
2018-05-10T07:31:11.950Z,77.95
2018-05-10T07:32:11.932Z,78.63
2018-05-10T07:33:11.974Z,78.72
2018-05-10T07:34:11.898Z,78.92
2018-05-10T07:35:11.881Z,79.30
2018-05-10T07:36:11.891Z,78.63
2018-05-10T07:37:11.882Z,78.53
2018-05-10T07:38:11.834Z,78.34
2018-05-10T07:39:11.825Z,78.00
2018-05-10T07:40:11.857Z,77.48
2018-05-10T07:41:11.796Z,78.05
2018-05-10T07:42:11.896Z,77.95
2018-05-10T07:43:11.764Z,78.67
2018-05-10T07:44:11.818Z,77.58
2018-05-10T07:45:11.759Z,78.00
2018-05-10T07:46:11.764Z,77.58
2018-05-10T07:47:11.708Z,77.38
2018-05-10T07:48:11.848Z,77.86
2018-05-10T07:49:11.672Z,77.48
2018-05-10T07:50:11.649Z,77.58
2018-05-10T07:51:11.662Z,77.76
2018-05-10T07:52:11.622Z,77.86
2018-05-10T07:53:11.644Z,77.76
2018-05-10T07:54:11.628Z,77.38
2018-05-10T07:55:11.633Z,78.15
2018-05-10T07:56:11.553Z,77.95
2018-05-10T07:57:11.536Z,77.76
2018-05-10T07:58:11.526Z,77.42
2018-05-10T07:59:11.508Z,78.09
2018-05-10T08:00:11.498Z,77.42
2018-05-10T08:01:11.475Z,77.04
2018-05-10T08:02:11.581Z,76.75
2018-05-10T08:03:11.451Z,76.46
2018-05-10T08:04:11.439Z,76.37
2018-05-10T08:05:11.412Z,76.17
2018-05-10T08:06:11.399Z,75.79
2018-05-10T08:07:11.385Z,75.50
2018-05-10T08:08:11.387Z,76.37
2018-05-10T08:09:11.415Z,75.70
2018-05-10T08:10:11.456Z,76.17
2018-05-10T08:11:11.328Z,75.89
2018-05-10T08:12:11.309Z,77.04
2018-05-10T08:13:11.294Z,75.63
2018-05-10T08:14:11.280Z,75.45
2018-05-10T08:15:11.257Z,75.06
2018-05-10T08:16:11.242Z,74.48
2018-05-10T08:17:11.254Z,75.06
2018-05-10T08:18:11.214Z,74.19
2018-05-10T08:19:11.199Z,74.01
2018-05-10T08:20:11.191Z,73.62
2018-05-10T08:21:11.166Z,73.52
2018-05-10T08:22:11.149Z,73.14
2018-05-10T08:23:11.132Z,72.85
2018-05-10T08:24:11.196Z,72.75
2018-05-10T08:25:11.103Z,73.04
2018-05-10T08:26:11.147Z,72.85
2018-05-10T08:27:11.100Z,72.81
2018-05-10T08:28:11.063Z,73.68
2018-05-10T08:29:11.041Z,72.81
2018-05-10T08:30:11.068Z,72.63
2018-05-10T08:31:11.085Z,73.30
2018-05-10T08:32:11.044Z,73.10
2018-05-10T08:33:11.507Z,74.06
2018-05-10T08:34:10.986Z,73.77
2018-05-10T08:35:10.953Z,73.68
2018-05-10T08:36:10.935Z,73.87
2018-05-10T08:37:10.924Z,72.95
2018-05-10T08:38:10.917Z,73.62
2018-05-10T08:39:10.902Z,72.75
2018-05-10T08:40:10.914Z,72.66
2018-05-10T08:41:10.858Z,72.75
2018-05-10T08:42:10.843Z,71.12
2018-05-10T08:43:10.937Z,71.51
2018-05-10T08:44:10.814Z,71.70
2018-05-10T08:45:10.880Z,71.61
2018-05-10T08:46:10.787Z,71.80
2018-05-10T08:47:10.814Z,72.18
2018-05-10T08:48:10.801Z,71.70
2018-05-10T08:49:10.769Z,71.89
2018-05-10T08:50:10.772Z,71.70
2018-05-10T08:51:10.753Z,71.98
2018-05-10T08:52:11.647Z,71.61
2018-05-10T08:53:10.732Z,71.70
2018-05-10T08:54:10.716Z,71.89
2018-05-10T08:55:11.143Z,71.41
2018-05-10T08:56:10.685Z,70.93
2018-05-10T08:57:10.613Z,70.58
2018-05-10T08:58:10.601Z,70.87
2018-05-10T08:59:11.198Z,69.24
2018-05-10T09:00:10.618Z,68.08
2018-05-10T09:01:10.552Z,67.41
2018-05-10T09:02:10.541Z,67.61
2018-05-10T09:03:10.549Z,66.36
2018-05-10T09:04:10.537Z,65.97
2018-05-10T09:05:10.493Z,66.55
2018-05-10T09:06:10.477Z,66.36
2018-05-10T09:07:10.466Z,66.36
2018-05-10T09:08:10.446Z,66.46
2018-05-10T09:09:10.466Z,67.41
2018-05-10T09:10:10.415Z,66.61
2018-05-10T09:11:10.403Z,66.55
2018-05-10T09:12:10.434Z,67.09
2018-05-10T09:13:10.372Z,67.19
2018-05-10T09:14:10.356Z,67.09
2018-05-10T09:15:10.344Z,67.90
2018-05-10T09:16:10.328Z,67.13
2018-05-10T09:17:10.308Z,68.18
2018-05-10T09:18:10.294Z,67.41
2018-05-10T09:19:10.277Z,67.22
2018-05-10T09:20:10.271Z,67.32
2018-05-10T09:21:10.260Z,66.55
2018-05-10T09:22:10.233Z,66.64
2018-05-10T09:23:10.250Z,67.13
2018-05-10T09:24:10.208Z,66.07
2018-05-10T09:25:10.202Z,66.46
2018-05-10T09:26:10.185Z,66.74
2018-05-10T09:27:10.636Z,67.51
2018-05-10T09:28:10.158Z,67.32
2018-05-10T09:29:10.131Z,67.22
2018-05-10T09:30:10.123Z,68.28
2018-05-10T09:31:10.185Z,68.18
2018-05-10T09:32:10.092Z,67.90
2018-05-10T09:33:10.072Z,67.41
2018-05-10T09:34:10.056Z,68.28
2018-05-10T09:35:10.102Z,67.99
2018-05-10T09:36:10.743Z,67.03
2018-05-10T09:37:10.713Z,67.00
2018-05-10T09:38:11.661Z,67.38
2018-05-10T09:39:10.063Z,67.47
2018-05-10T09:40:10.019Z,67.38
2018-05-10T09:41:09.959Z,67.29
2018-05-10T09:42:09.945Z,67.47
2018-05-10T09:43:09.959Z,67.96
2018-05-10T09:44:10.028Z,68.24
2018-05-10T09:45:10.695Z,67.96
2018-05-10T09:46:09.883Z,67.38
2018-05-10T09:47:11.024Z,67.13
2018-05-10T09:48:09.896Z,67.47
2018-05-10T09:49:09.848Z,67.29
2018-05-10T09:50:09.869Z,67.47
2018-05-10T09:51:09.884Z,67.09
2018-05-10T09:52:10.692Z,68.18
2018-05-10T09:53:09.797Z,68.08
2018-05-10T09:54:09.933Z,68.08
2018-05-10T09:55:10.719Z,67.61
2018-05-10T09:56:13.928Z,67.32
2018-05-10T09:57:09.714Z,67.67
2018-05-10T09:58:10.278Z,67.19
2018-05-10T09:59:09.735Z,67.96
2018-05-10T10:00:09.667Z,67.67
2018-05-10T10:01:10.308Z,68.82
2018-05-10T10:02:09.686Z,67.57
2018-05-10T10:03:09.668Z,68.63
2018-05-10T10:04:09.664Z,68.44
2018-05-10T10:05:09.602Z,69.11
2018-05-10T10:06:09.651Z,69.20
2018-05-10T10:07:09.565Z,68.73
2018-05-10T10:08:09.546Z,68.69
2018-05-10T10:09:09.582Z,68.40
2018-05-10T10:10:09.516Z,68.50
2018-05-10T10:11:10.223Z,69.07
2018-05-10T10:12:09.485Z,69.07
2018-05-10T10:13:09.525Z,69.17
2018-05-10T10:14:09.531Z,69.07
2018-05-10T10:15:10.353Z,69.07
2018-05-10T10:16:09.474Z,69.65
2018-05-10T10:17:09.405Z,69.93
2018-05-10T10:18:09.402Z,70.42
2018-05-10T10:19:09.382Z,71.28
2018-05-10T10:20:09.540Z,71.47
2018-05-10T10:21:09.349Z,71.66
2018-05-10T10:22:09.384Z,71.09
2018-05-10T10:23:09.313Z,71.09
2018-05-10T10:24:09.301Z,72.43
2018-05-10T10:25:09.297Z,72.63
2018-05-10T10:26:09.266Z,73.97
2018-05-10T10:27:09.263Z,73.77
2018-05-10T10:28:09.313Z,75.02
2018-05-10T10:29:09.225Z,75.37
2018-05-10T10:30:09.246Z,74.98
2018-05-10T10:31:10.515Z,76.52
2018-05-10T10:32:09.217Z,75.95
2018-05-10T10:33:09.154Z,76.62
2018-05-10T10:34:09.149Z,77.67
2018-05-10T10:35:09.134Z,77.58
2018-05-10T10:36:09.108Z,78.72
2018-05-10T10:37:09.136Z,78.72
2018-05-10T10:38:09.148Z,79.01
2018-05-10T10:39:09.062Z,78.05
2018-05-10T10:40:09.090Z,79.26
2018-05-10T10:41:09.032Z,80.32
2018-05-10T10:42:09.009Z,80.89
2018-05-10T10:43:09.004Z,79.88
2018-05-10T10:44:09.046Z,79.55
2018-05-10T10:45:09.016Z,78.82
2018-05-10T10:46:09.066Z,79.30
2018-05-10T10:47:08.934Z,80.16
2018-05-10T10:48:08.917Z,79.68
2018-05-10T10:49:08.905Z,80.45
2018-05-10T10:50:08.883Z,80.55
2018-05-10T10:51:09.058Z,79.88
2018-05-10T10:52:08.853Z,80.64
2018-05-10T10:53:08.835Z,80.55
2018-05-10T10:54:08.818Z,80.55
2018-05-10T10:55:08.804Z,79.88
2018-05-10T10:56:08.788Z,79.21
2018-05-10T10:57:08.772Z,79.16
2018-05-10T10:58:08.753Z,80.35
2018-05-10T10:59:08.744Z,80.35
2018-05-10T11:00:08.821Z,79.36
2018-05-10T11:01:08.712Z,78.53
2018-05-10T11:02:08.697Z,79.49
2018-05-10T11:03:08.677Z,80.55
2018-05-10T11:04:08.660Z,79.97
2018-05-10T11:05:08.650Z,77.82
2018-05-10T11:06:08.630Z,78.05
2018-05-10T11:07:08.642Z,77.63
2018-05-10T11:08:09.013Z,79.36
2018-05-10T11:09:11.953Z,79.45
2018-05-10T11:10:08.563Z,79.26
2018-05-10T11:11:08.559Z,79.07
2018-05-10T11:12:08.610Z,79.99
2018-05-10T11:13:08.534Z,79.60
2018-05-10T11:14:08.502Z,80.51
2018-05-10T11:15:08.601Z,80.47
2018-05-10T11:16:08.465Z,80.94
2018-05-10T11:17:08.450Z,79.32
2018-05-10T11:18:08.439Z,79.89
2018-05-10T11:19:08.422Z,79.80
2018-05-10T11:20:08.406Z,79.60
2018-05-10T11:21:08.393Z,79.60
2018-05-10T11:22:08.448Z,80.18
2018-05-10T11:23:08.356Z,80.27
2018-05-10T11:24:08.341Z,80.18
2018-05-10T11:25:08.373Z,80.62
2018-05-10T11:26:08.334Z,82.34
2018-05-10T11:27:08.495Z,81.86
2018-05-10T11:28:08.292Z,83.49
2018-05-10T11:29:08.297Z,82.92
2018-05-10T11:30:08.410Z,81.86
2018-05-10T11:31:08.228Z,83.01
2018-05-10T11:32:08.222Z,81.48
2018-05-10T11:33:08.233Z,81.00
2018-05-10T11:34:08.183Z,83.39
2018-05-10T11:35:08.156Z,81.96
2018-05-10T11:36:08.168Z,81.29
2018-05-10T11:37:08.193Z,81.86
2018-05-10T11:38:08.124Z,81.67
2018-05-10T11:39:08.097Z,80.62
2018-05-10T11:40:08.069Z,81.57
2018-05-10T11:41:08.053Z,81.20
2018-05-10T11:42:08.036Z,80.43
2018-05-10T11:43:08.019Z,80.24
2018-05-10T11:44:08.005Z,80.81
2018-05-10T11:45:07.990Z,81.77
2018-05-10T11:46:07.976Z,81.77
2018-05-10T11:47:07.957Z,81.23
2018-05-10T11:48:07.941Z,82.24
2018-05-10T11:49:07.937Z,80.85
2018-05-10T11:50:07.903Z,80.47
2018-05-10T11:51:07.890Z,80.18
2018-05-10T11:52:07.878Z,79.60
2018-05-10T11:53:07.857Z,79.70
2018-05-10T11:54:07.839Z,78.84
2018-05-10T11:55:07.855Z,80.37
2018-05-10T11:56:07.825Z,81.23
2018-05-10T11:57:07.824Z,80.47
2018-05-10T11:58:07.782Z,78.42
2018-05-10T11:59:07.770Z,77.84
2018-05-10T12:00:07.752Z,77.40
2018-05-10T12:01:07.727Z,76.02
2018-05-10T12:02:07.710Z,74.58
2018-05-10T12:03:07.742Z,75.64
2018-05-10T12:04:07.680Z,74.01
2018-05-10T12:05:07.655Z,72.96
2018-05-10T12:06:07.718Z,73.15
2018-05-10T12:07:07.624Z,71.52
2018-05-10T12:08:07.608Z,70.56
2018-05-10T12:09:07.589Z,70.85
2018-05-10T12:10:07.635Z,70.47
2018-05-10T12:11:07.557Z,68.84
2018-05-10T12:12:07.546Z,69.89
2018-05-10T12:13:07.527Z,68.74
2018-05-10T12:14:07.509Z,69.99
2018-05-10T12:15:07.497Z,68.84
2018-05-10T12:16:07.484Z,69.80
2018-05-10T12:17:07.457Z,70.09
2018-05-10T12:18:07.442Z,69.99
2018-05-10T12:19:08.251Z,70.28
2018-05-10T12:20:07.506Z,70.09
2018-05-10T12:21:07.393Z,69.70
2018-05-10T12:22:07.373Z,69.23
2018-05-10T12:23:07.800Z,69.32
2018-05-10T12:24:07.735Z,69.99
2018-05-10T12:25:07.324Z,69.03
2018-05-10T12:26:07.307Z,70.18
2018-05-10T12:27:07.292Z,70.37
2018-05-10T12:28:07.323Z,71.52
2018-05-10T12:29:07.257Z,72.09
2018-05-10T12:30:07.241Z,68.55
2018-05-10T12:31:07.257Z,68.84
2018-05-10T12:32:07.218Z,69.60
2018-05-10T12:33:07.194Z,68.55
2018-05-10T12:34:07.241Z,70.28
2018-05-10T12:35:07.157Z,69.29
2018-05-10T12:36:07.143Z,69.70
2018-05-10T12:37:07.126Z,67.94
2018-05-10T12:38:07.135Z,68.27
2018-05-10T12:39:07.096Z,69.13
2018-05-10T12:40:07.083Z,68.80
2018-05-10T12:41:07.063Z,68.42
2018-05-10T12:42:07.043Z,68.52
2018-05-10T12:43:07.024Z,68.42
2018-05-10T12:44:07.033Z,69.00
2018-05-10T12:45:07.005Z,68.33
2018-05-10T12:46:06.999Z,67.85
2018-05-10T12:47:06.965Z,68.33
2018-05-10T12:48:07.027Z,68.52
2018-05-10T12:49:06.925Z,68.90
2018-05-10T12:50:06.908Z,69.19
2018-05-10T12:51:06.892Z,69.00
2018-05-10T12:52:06.872Z,68.80